sensor_id;sensor_type;location;lat;lon;timestamp;P1;durP1;ratioP1;P2;durP2;ratioP2
140;SDS011;65;48.778;9.160;2023-07-02T00:02:16;8.13;;;4.63;;
140;SDS011;65;48.778;9.160;2023-07-02T00:05:02;7.22;;;4.57;;
140;SDS011;65;48.778;9.160;2023-07-02T00:07:48;6.18;;;4.40;;
140;SDS011;65;48.778;9.160;2023-07-02T00:10:34;9.63;;;4.00;;
140;SDS011;65;48.778;9.160;2023-07-02T00:13:20;8.18;;;4.38;;
140;SDS011;65;48.778;9.160;2023-07-02T00:16:06;7.45;;;4.50;;
140;SDS011;65;48.778;9.160;2023-07-02T00:18:52;7.80;;;4.45;;
140;SDS011;65;48.778;9.160;2023-07-02T00:21:38;7.05;;;4.60;;
140;SDS011;65;48.778;9.160;2023-07-02T00:24:25;7.80;;;4.47;;
140;SDS011;65;48.778;9.160;2023-07-02T00:27:12;7.65;;;4.93;;
140;SDS011;65;48.778;9.160;2023-07-02T00:29:58;8.38;;;4.53;;
140;SDS011;65;48.778;9.160;2023-07-02T00:32:44;7.10;;;4.65;;
140;SDS011;65;48.778;9.160;2023-07-02T00:35:29;9.10;;;4.53;;
140;SDS011;65;48.778;9.160;2023-07-02T00:38:15;7.50;;;4.35;;
140;SDS011;65;48.778;9.160;2023-07-02T00:41:16;6.20;;;4.20;;
140;SDS011;65;48.778;9.160;2023-07-02T00:44:04;6.72;;;4.25;;
140;SDS011;65;48.778;9.160;2023-07-02T00:46:50;7.32;;;3.90;;
140;SDS011;65;48.778;9.160;2023-07-02T00:49:36;7.43;;;3.90;;
140;SDS011;65;48.778;9.160;2023-07-02T00:52:23;6.75;;;3.97;;
140;SDS011;65;48.778;9.160;2023-07-02T00:55:11;6.38;;;4.13;;
140;SDS011;65;48.778;9.160;2023-07-02T00:57:56;7.35;;;4.03;;
140;SDS011;65;48.778;9.160;2023-07-02T01:00:42;6.57;;;3.90;;
140;SDS011;65;48.778;9.160;2023-07-02T01:03:29;7.35;;;4.00;;
140;SDS011;65;48.778;9.160;2023-07-02T01:06:18;8.68;;;4.30;;
140;SDS011;65;48.778;9.160;2023-07-02T01:09:05;6.60;;;3.75;;
140;SDS011;65;48.778;9.160;2023-07-02T01:11:53;6.63;;;3.85;;
140;SDS011;65;48.778;9.160;2023-07-02T01:14:41;6.47;;;4.03;;
140;SDS011;65;48.778;9.160;2023-07-02T01:17:31;5.72;;;3.78;;
140;SDS011;65;48.778;9.160;2023-07-02T01:20:26;5.57;;;3.45;;
140;SDS011;65;48.778;9.160;2023-07-02T01:23:16;7.88;;;3.35;;
140;SDS011;65;48.778;9.160;2023-07-02T01:26:01;6.18;;;3.58;;
140;SDS011;65;48.778;9.160;2023-07-02T01:28:47;6.70;;;3.58;;
140;SDS011;65;48.778;9.160;2023-07-02T01:31:33;5.20;;;3.58;;
140;SDS011;65;48.778;9.160;2023-07-02T01:34:20;7.07;;;3.30;;
140;SDS011;65;48.778;9.160;2023-07-02T01:37:06;6.88;;;3.40;;
140;SDS011;65;48.778;9.160;2023-07-02T01:39:53;7.30;;;3.47;;
140;SDS011;65;48.778;9.160;2023-07-02T01:42:39;6.05;;;3.72;;
140;SDS011;65;48.778;9.160;2023-07-02T01:45:25;6.65;;;3.60;;
140;SDS011;65;48.778;9.160;2023-07-02T01:48:11;8.30;;;3.50;;
140;SDS011;65;48.778;9.160;2023-07-02T01:50:57;6.47;;;3.50;;
140;SDS011;65;48.778;9.160;2023-07-02T01:53:43;7.43;;;3.75;;
140;SDS011;65;48.778;9.160;2023-07-02T01:56:28;5.20;;;3.53;;
140;SDS011;65;48.778;9.160;2023-07-02T01:59:14;7.72;;;3.50;;
140;SDS011;65;48.778;9.160;2023-07-02T02:02:02;7.38;;;3.53;;
140;SDS011;65;48.778;9.160;2023-07-02T02:04:48;7.00;;;3.72;;
140;SDS011;65;48.778;9.160;2023-07-02T02:07:34;6.22;;;3.38;;
140;SDS011;65;48.778;9.160;2023-07-02T02:10:21;5.88;;;3.45;;
140;SDS011;65;48.778;9.160;2023-07-02T02:13:06;6.95;;;3.75;;
140;SDS011;65;48.778;9.160;2023-07-02T02:15:53;6.00;;;3.42;;
140;SDS011;65;48.778;9.160;2023-07-02T02:18:39;5.78;;;3.40;;
140;SDS011;65;48.778;9.160;2023-07-02T02:21:25;7.00;;;3.85;;
140;SDS011;65;48.778;9.160;2023-07-02T02:24:12;5.85;;;3.40;;
140;SDS011;65;48.778;9.160;2023-07-02T02:26:58;5.20;;;3.40;;
140;SDS011;65;48.778;9.160;2023-07-02T02:29:43;6.28;;;3.60;;
140;SDS011;65;48.778;9.160;2023-07-02T02:32:29;6.63;;;3.30;;
140;SDS011;65;48.778;9.160;2023-07-02T02:35:15;6.88;;;3.80;;
140;SDS011;65;48.778;9.160;2023-07-02T02:38:02;6.18;;;3.05;;
140;SDS011;65;48.778;9.160;2023-07-02T02:40:48;5.93;;;3.30;;
140;SDS011;65;48.778;9.160;2023-07-02T02:43:34;5.90;;;3.30;;
140;SDS011;65;48.778;9.160;2023-07-02T02:46:21;5.00;;;3.00;;
140;SDS011;65;48.778;9.160;2023-07-02T02:49:07;4.95;;;3.20;;
140;SDS011;65;48.778;9.160;2023-07-02T02:51:53;7.60;;;3.30;;
140;SDS011;65;48.778;9.160;2023-07-02T02:54:39;7.10;;;3.50;;
140;SDS011;65;48.778;9.160;2023-07-02T02:57:25;5.43;;;3.03;;
140;SDS011;65;48.778;9.160;2023-07-02T03:00:11;5.35;;;3.00;;
140;SDS011;65;48.778;9.160;2023-07-02T03:02:57;5.18;;;3.25;;
140;SDS011;65;48.778;9.160;2023-07-02T03:05:43;5.70;;;3.10;;
140;SDS011;65;48.778;9.160;2023-07-02T03:08:31;5.35;;;3.00;;
140;SDS011;65;48.778;9.160;2023-07-02T03:11:17;6.47;;;2.80;;
140;SDS011;65;48.778;9.160;2023-07-02T03:14:03;6.30;;;3.17;;
140;SDS011;65;48.778;9.160;2023-07-02T03:16:49;9.20;;;3.10;;
140;SDS011;65;48.778;9.160;2023-07-02T03:19:35;6.25;;;2.90;;
140;SDS011;65;48.778;9.160;2023-07-02T03:22:20;7.25;;;3.53;;
140;SDS011;65;48.778;9.160;2023-07-02T03:25:06;5.90;;;3.53;;
140;SDS011;65;48.778;9.160;2023-07-02T03:27:52;6.00;;;3.35;;
140;SDS011;65;48.778;9.160;2023-07-02T03:30:38;7.35;;;3.60;;
140;SDS011;65;48.778;9.160;2023-07-02T03:33:24;6.47;;;3.53;;
140;SDS011;65;48.778;9.160;2023-07-02T03:36:28;6.60;;;3.80;;
140;SDS011;65;48.778;9.160;2023-07-02T03:39:15;10.82;;;4.38;;
140;SDS011;65;48.778;9.160;2023-07-02T03:42:04;11.55;;;4.75;;
140;SDS011;65;48.778;9.160;2023-07-02T03:44:51;9.30;;;4.70;;
140;SDS011;65;48.778;9.160;2023-07-02T03:47:37;8.07;;;4.40;;
140;SDS011;65;48.778;9.160;2023-07-02T03:50:22;7.53;;;4.13;;
140;SDS011;65;48.778;9.160;2023-07-02T03:53:08;6.82;;;4.50;;
140;SDS011;65;48.778;9.160;2023-07-02T03:55:55;8.98;;;4.88;;
140;SDS011;65;48.778;9.160;2023-07-02T03:58:41;11.43;;;4.82;;
140;SDS011;65;48.778;9.160;2023-07-02T04:01:27;7.18;;;4.50;;
140;SDS011;65;48.778;9.160;2023-07-02T04:04:13;10.57;;;4.30;;
140;SDS011;65;48.778;9.160;2023-07-02T04:06:58;9.85;;;4.40;;
140;SDS011;65;48.778;9.160;2023-07-02T04:09:44;10.07;;;4.85;;
140;SDS011;65;48.778;9.160;2023-07-02T04:12:30;10.50;;;4.53;;
140;SDS011;65;48.778;9.160;2023-07-02T04:15:16;11.20;;;4.63;;
140;SDS011;65;48.778;9.160;2023-07-02T04:18:02;9.15;;;4.40;;
140;SDS011;65;48.778;9.160;2023-07-02T04:20:48;9.25;;;4.47;;
140;SDS011;65;48.778;9.160;2023-07-02T04:23:33;10.73;;;4.82;;
140;SDS011;65;48.778;9.160;2023-07-02T04:26:19;10.45;;;4.97;;
140;SDS011;65;48.778;9.160;2023-07-02T04:29:06;14.80;;;4.45;;
140;SDS011;65;48.778;9.160;2023-07-02T04:31:51;11.27;;;5.00;;
140;SDS011;65;48.778;9.160;2023-07-02T04:34:37;8.90;;;4.60;;
140;SDS011;65;48.778;9.160;2023-07-02T04:37:23;9.60;;;4.60;;
140;SDS011;65;48.778;9.160;2023-07-02T04:40:09;8.60;;;4.68;;
140;SDS011;65;48.778;9.160;2023-07-02T04:42:55;9.60;;;4.78;;
140;SDS011;65;48.778;9.160;2023-07-02T04:45:44;8.38;;;4.38;;
140;SDS011;65;48.778;9.160;2023-07-02T04:48:33;9.95;;;5.05;;
140;SDS011;65;48.778;9.160;2023-07-02T04:51:20;9.25;;;4.40;;
140;SDS011;65;48.778;9.160;2023-07-02T04:54:06;8.98;;;4.60;;
140;SDS011;65;48.778;9.160;2023-07-02T04:56:52;9.43;;;4.40;;
140;SDS011;65;48.778;9.160;2023-07-02T04:59:38;9.88;;;4.40;;
140;SDS011;65;48.778;9.160;2023-07-02T05:02:24;8.18;;;3.97;;
140;SDS011;65;48.778;9.160;2023-07-02T05:05:10;8.63;;;4.30;;
140;SDS011;65;48.778;9.160;2023-07-02T05:07:56;7.93;;;3.83;;
140;SDS011;65;48.778;9.160;2023-07-02T05:10:41;9.20;;;3.65;;
140;SDS011;65;48.778;9.160;2023-07-02T05:13:27;9.55;;;4.13;;
140;SDS011;65;48.778;9.160;2023-07-02T05:16:13;8.10;;;3.83;;
140;SDS011;65;48.778;9.160;2023-07-02T05:18:59;6.72;;;3.60;;
140;SDS011;65;48.778;9.160;2023-07-02T05:21:45;10.05;;;3.90;;
140;SDS011;65;48.778;9.160;2023-07-02T05:24:31;9.80;;;4.22;;
140;SDS011;65;48.778;9.160;2023-07-02T05:27:17;8.70;;;4.13;;
140;SDS011;65;48.778;9.160;2023-07-02T05:30:03;8.55;;;4.03;;
140;SDS011;65;48.778;9.160;2023-07-02T05:32:49;9.65;;;4.47;;
140;SDS011;65;48.778;9.160;2023-07-02T05:35:36;9.73;;;4.35;;
140;SDS011;65;48.778;9.160;2023-07-02T05:38:22;9.07;;;4.43;;
140;SDS011;65;48.778;9.160;2023-07-02T05:41:08;8.55;;;4.15;;
140;SDS011;65;48.778;9.160;2023-07-02T05:43:54;9.52;;;4.93;;
140;SDS011;65;48.778;9.160;2023-07-02T05:46:40;8.18;;;4.45;;
140;SDS011;65;48.778;9.160;2023-07-02T05:49:26;8.55;;;4.65;;
140;SDS011;65;48.778;9.160;2023-07-02T05:52:11;8.50;;;4.18;;
140;SDS011;65;48.778;9.160;2023-07-02T05:54:57;8.50;;;4.07;;
140;SDS011;65;48.778;9.160;2023-07-02T05:57:43;9.88;;;4.38;;
140;SDS011;65;48.778;9.160;2023-07-02T06:00:29;8.80;;;4.43;;
140;SDS011;65;48.778;9.160;2023-07-02T06:03:16;12.55;;;5.00;;
140;SDS011;65;48.778;9.160;2023-07-02T06:06:04;11.60;;;5.90;;
140;SDS011;65;48.778;9.160;2023-07-02T06:08:50;12.48;;;5.80;;
140;SDS011;65;48.778;9.160;2023-07-02T06:14:44;11.20;;;5.60;;
140;SDS011;65;48.778;9.160;2023-07-02T06:17:30;10.02;;;5.57;;
140;SDS011;65;48.778;9.160;2023-07-02T06:20:16;14.38;;;6.47;;
140;SDS011;65;48.778;9.160;2023-07-02T06:23:02;11.13;;;6.00;;
140;SDS011;65;48.778;9.160;2023-07-02T06:25:48;13.65;;;6.70;;
140;SDS011;65;48.778;9.160;2023-07-02T06:28:34;12.38;;;6.35;;
140;SDS011;65;48.778;9.160;2023-07-02T06:31:20;16.33;;;7.55;;
140;SDS011;65;48.778;9.160;2023-07-02T06:34:06;13.52;;;7.45;;
140;SDS011;65;48.778;9.160;2023-07-02T06:36:53;15.90;;;7.80;;
140;SDS011;65;48.778;9.160;2023-07-02T06:39:39;16.42;;;8.63;;
140;SDS011;65;48.778;9.160;2023-07-02T06:42:25;15.38;;;8.18;;
140;SDS011;65;48.778;9.160;2023-07-02T06:45:11;16.63;;;8.90;;
140;SDS011;65;48.778;9.160;2023-07-02T06:47:57;13.27;;;7.80;;
140;SDS011;65;48.778;9.160;2023-07-02T06:50:44;15.50;;;8.95;;
140;SDS011;65;48.778;9.160;2023-07-02T06:53:30;16.08;;;8.45;;
140;SDS011;65;48.778;9.160;2023-07-02T06:56:16;14.82;;;8.38;;
140;SDS011;65;48.778;9.160;2023-07-02T06:59:02;18.25;;;9.23;;
140;SDS011;65;48.778;9.160;2023-07-02T07:01:51;15.57;;;8.55;;
140;SDS011;65;48.778;9.160;2023-07-02T07:04:37;17.15;;;9.45;;
140;SDS011;65;48.778;9.160;2023-07-02T07:07:23;16.92;;;8.77;;
140;SDS011;65;48.778;9.160;2023-07-02T07:10:09;19.25;;;10.18;;
140;SDS011;65;48.778;9.160;2023-07-02T07:12:55;20.92;;;9.63;;
140;SDS011;65;48.778;9.160;2023-07-02T07:15:41;18.92;;;10.35;;
140;SDS011;65;48.778;9.160;2023-07-02T07:18:27;19.63;;;10.15;;
140;SDS011;65;48.778;9.160;2023-07-02T07:21:13;20.00;;;11.10;;
140;SDS011;65;48.778;9.160;2023-07-02T07:23:59;20.15;;;10.43;;
140;SDS011;65;48.778;9.160;2023-07-02T07:26:45;20.63;;;11.45;;
140;SDS011;65;48.778;9.160;2023-07-02T07:29:31;20.55;;;11.13;;
140;SDS011;65;48.778;9.160;2023-07-02T07:32:17;20.90;;;12.00;;
140;SDS011;65;48.778;9.160;2023-07-02T07:35:03;20.23;;;11.40;;
140;SDS011;65;48.778;9.160;2023-07-02T07:37:49;20.80;;;11.65;;
140;SDS011;65;48.778;9.160;2023-07-02T07:40:35;18.90;;;11.82;;
140;SDS011;65;48.778;9.160;2023-07-02T07:43:21;19.38;;;12.20;;
140;SDS011;65;48.778;9.160;2023-07-02T07:46:07;21.23;;;13.27;;
140;SDS011;65;48.778;9.160;2023-07-02T07:48:52;21.60;;;12.25;;
140;SDS011;65;48.778;9.160;2023-07-02T07:51:38;22.45;;;11.88;;
140;SDS011;65;48.778;9.160;2023-07-02T07:54:24;21.38;;;12.85;;
140;SDS011;65;48.778;9.160;2023-07-02T07:57:10;20.55;;;12.48;;
140;SDS011;65;48.778;9.160;2023-07-02T07:59:56;20.92;;;12.93;;
140;SDS011;65;48.778;9.160;2023-07-02T08:02:42;21.42;;;12.95;;
140;SDS011;65;48.778;9.160;2023-07-02T08:05:28;21.58;;;12.40;;
140;SDS011;65;48.778;9.160;2023-07-02T08:08:16;23.48;;;12.88;;
140;SDS011;65;48.778;9.160;2023-07-02T08:11:02;18.42;;;12.10;;
140;SDS011;65;48.778;9.160;2023-07-02T08:13:48;21.23;;;12.38;;
140;SDS011;65;48.778;9.160;2023-07-02T08:16:34;22.05;;;12.80;;
140;SDS011;65;48.778;9.160;2023-07-02T08:19:20;22.73;;;13.15;;
140;SDS011;65;48.778;9.160;2023-07-02T08:22:07;23.05;;;13.05;;
140;SDS011;65;48.778;9.160;2023-07-02T08:24:53;23.83;;;13.93;;
140;SDS011;65;48.778;9.160;2023-07-02T08:27:40;22.83;;;13.15;;
140;SDS011;65;48.778;9.160;2023-07-02T08:30:25;22.60;;;13.13;;
140;SDS011;65;48.778;9.160;2023-07-02T08:33:11;21.65;;;12.20;;
140;SDS011;65;48.778;9.160;2023-07-02T08:35:57;27.73;;;13.35;;
140;SDS011;65;48.778;9.160;2023-07-02T08:38:43;19.77;;;12.60;;
140;SDS011;65;48.778;9.160;2023-07-02T08:41:29;21.40;;;13.00;;
140;SDS011;65;48.778;9.160;2023-07-02T08:44:18;18.35;;;12.43;;
140;SDS011;65;48.778;9.160;2023-07-02T08:47:05;20.92;;;13.15;;
140;SDS011;65;48.778;9.160;2023-07-02T08:49:52;19.42;;;12.40;;
140;SDS011;65;48.778;9.160;2023-07-02T08:52:38;18.08;;;12.43;;
140;SDS011;65;48.778;9.160;2023-07-02T08:55:24;18.83;;;12.70;;
140;SDS011;65;48.778;9.160;2023-07-02T08:58:10;22.27;;;12.48;;
140;SDS011;65;48.778;9.160;2023-07-02T09:03:58;20.40;;;11.57;;
140;SDS011;65;48.778;9.160;2023-07-02T09:06:46;15.45;;;10.38;;
140;SDS011;65;48.778;9.160;2023-07-02T09:09:33;19.35;;;11.07;;
140;SDS011;65;48.778;9.160;2023-07-02T09:12:33;18.98;;;10.50;;
140;SDS011;65;48.778;9.160;2023-07-02T09:15:20;21.20;;;11.55;;
140;SDS011;65;48.778;9.160;2023-07-02T09:18:19;16.70;;;10.55;;
140;SDS011;65;48.778;9.160;2023-07-02T09:21:06;18.00;;;11.38;;
140;SDS011;65;48.778;9.160;2023-07-02T09:23:52;18.80;;;11.77;;
140;SDS011;65;48.778;9.160;2023-07-02T09:26:49;17.38;;;11.15;;
140;SDS011;65;48.778;9.160;2023-07-02T09:29:36;18.05;;;11.82;;
140;SDS011;65;48.778;9.160;2023-07-02T09:32:25;19.42;;;10.27;;
140;SDS011;65;48.778;9.160;2023-07-02T09:35:12;18.08;;;11.55;;
140;SDS011;65;48.778;9.160;2023-07-02T09:37:58;17.27;;;11.55;;
140;SDS011;65;48.778;9.160;2023-07-02T09:40:45;19.67;;;11.25;;
140;SDS011;65;48.778;9.160;2023-07-02T09:43:40;19.73;;;10.95;;
140;SDS011;65;48.778;9.160;2023-07-02T09:46:27;19.10;;;11.27;;
140;SDS011;65;48.778;9.160;2023-07-02T09:49:14;19.63;;;11.13;;
140;SDS011;65;48.778;9.160;2023-07-02T09:52:11;18.40;;;11.90;;
140;SDS011;65;48.778;9.160;2023-07-02T09:54:59;18.13;;;11.45;;
140;SDS011;65;48.778;9.160;2023-07-02T09:57:45;17.58;;;11.43;;
140;SDS011;65;48.778;9.160;2023-07-02T10:00:31;18.65;;;12.02;;
140;SDS011;65;48.778;9.160;2023-07-02T10:03:27;15.85;;;11.48;;
140;SDS011;65;48.778;9.160;2023-07-02T10:06:13;19.73;;;11.40;;
140;SDS011;65;48.778;9.160;2023-07-02T10:08:59;19.48;;;11.75;;
140;SDS011;65;48.778;9.160;2023-07-02T10:11:45;18.25;;;11.85;;
140;SDS011;65;48.778;9.160;2023-07-02T10:14:42;17.40;;;11.55;;
140;SDS011;65;48.778;9.160;2023-07-02T10:17:30;16.48;;;11.50;;
140;SDS011;65;48.778;9.160;2023-07-02T10:20:30;18.38;;;11.43;;
140;SDS011;65;48.778;9.160;2023-07-02T10:23:20;18.38;;;11.93;;
140;SDS011;65;48.778;9.160;2023-07-02T10:26:19;21.10;;;12.88;;
140;SDS011;65;48.778;9.160;2023-07-02T10:29:05;20.17;;;13.43;;
140;SDS011;65;48.778;9.160;2023-07-02T10:31:52;19.90;;;12.60;;
140;SDS011;65;48.778;9.160;2023-07-02T10:34:40;21.48;;;12.85;;
140;SDS011;65;48.778;9.160;2023-07-02T10:37:25;18.80;;;12.32;;
140;SDS011;65;48.778;9.160;2023-07-02T10:40:11;21.60;;;13.68;;
140;SDS011;65;48.778;9.160;2023-07-02T10:42:58;19.88;;;12.48;;
140;SDS011;65;48.778;9.160;2023-07-02T10:45:44;20.08;;;12.95;;
140;SDS011;65;48.778;9.160;2023-07-02T10:48:30;20.02;;;13.60;;
140;SDS011;65;48.778;9.160;2023-07-02T10:51:16;24.88;;;13.70;;
140;SDS011;65;48.778;9.160;2023-07-02T10:54:02;21.85;;;13.18;;
140;SDS011;65;48.778;9.160;2023-07-02T10:56:50;20.85;;;12.93;;
140;SDS011;65;48.778;9.160;2023-07-02T10:59:41;18.27;;;12.32;;
140;SDS011;65;48.778;9.160;2023-07-02T11:02:33;19.15;;;11.77;;
140;SDS011;65;48.778;9.160;2023-07-02T11:05:21;21.65;;;13.00;;
140;SDS011;65;48.778;9.160;2023-07-02T11:08:13;20.02;;;12.75;;
140;SDS011;65;48.778;9.160;2023-07-02T11:11:06;17.33;;;12.07;;
140;SDS011;65;48.778;9.160;2023-07-02T11:13:53;19.13;;;13.35;;
140;SDS011;65;48.778;9.160;2023-07-02T11:16:39;20.25;;;13.43;;
140;SDS011;65;48.778;9.160;2023-07-02T11:19:25;19.77;;;12.65;;
140;SDS011;65;48.778;9.160;2023-07-02T11:22:11;19.30;;;12.55;;
140;SDS011;65;48.778;9.160;2023-07-02T11:24:57;19.13;;;12.93;;
140;SDS011;65;48.778;9.160;2023-07-02T11:28:06;19.00;;;13.18;;
140;SDS011;65;48.778;9.160;2023-07-02T11:30:52;21.33;;;13.43;;
140;SDS011;65;48.778;9.160;2023-07-02T11:33:39;17.27;;;12.10;;
140;SDS011;65;48.778;9.160;2023-07-02T11:36:25;17.23;;;11.70;;
140;SDS011;65;48.778;9.160;2023-07-02T11:39:11;18.88;;;12.13;;
140;SDS011;65;48.778;9.160;2023-07-02T11:42:01;17.88;;;12.65;;
140;SDS011;65;48.778;9.160;2023-07-02T11:44:47;18.35;;;12.25;;
140;SDS011;65;48.778;9.160;2023-07-02T11:47:33;19.48;;;12.88;;
140;SDS011;65;48.778;9.160;2023-07-02T11:50:19;20.55;;;12.77;;
140;SDS011;65;48.778;9.160;2023-07-02T11:53:05;19.08;;;12.93;;
140;SDS011;65;48.778;9.160;2023-07-02T11:55:50;20.42;;;12.60;;
140;SDS011;65;48.778;9.160;2023-07-02T11:58:36;19.02;;;12.82;;
140;SDS011;65;48.778;9.160;2023-07-02T12:01:22;19.85;;;12.90;;
140;SDS011;65;48.778;9.160;2023-07-02T12:04:09;16.75;;;12.60;;
140;SDS011;65;48.778;9.160;2023-07-02T12:06:57;19.30;;;13.40;;
140;SDS011;65;48.778;9.160;2023-07-02T12:09:43;20.85;;;13.32;;
140;SDS011;65;48.778;9.160;2023-07-02T12:12:29;18.35;;;13.07;;
140;SDS011;65;48.778;9.160;2023-07-02T12:15:15;21.55;;;13.15;;
140;SDS011;65;48.778;9.160;2023-07-02T12:18:01;20.75;;;12.68;;
140;SDS011;65;48.778;9.160;2023-07-02T12:20:47;23.77;;;12.52;;
140;SDS011;65;48.778;9.160;2023-07-02T12:23:32;19.42;;;12.98;;
140;SDS011;65;48.778;9.160;2023-07-02T12:26:18;19.98;;;13.27;;
140;SDS011;65;48.778;9.160;2023-07-02T12:29:04;18.95;;;12.85;;
140;SDS011;65;48.778;9.160;2023-07-02T12:31:50;20.83;;;12.98;;
140;SDS011;65;48.778;9.160;2023-07-02T12:34:36;19.05;;;13.23;;
140;SDS011;65;48.778;9.160;2023-07-02T12:37:22;18.38;;;13.15;;
140;SDS011;65;48.778;9.160;2023-07-02T12:40:09;17.75;;;13.25;;
140;SDS011;65;48.778;9.160;2023-07-02T12:42:56;21.52;;;13.38;;
140;SDS011;65;48.778;9.160;2023-07-02T12:45:42;20.27;;;13.38;;
140;SDS011;65;48.778;9.160;2023-07-02T12:48:28;19.35;;;12.57;;
140;SDS011;65;48.778;9.160;2023-07-02T12:51:15;21.45;;;13.85;;
140;SDS011;65;48.778;9.160;2023-07-02T12:54:02;20.58;;;13.82;;
140;SDS011;65;48.778;9.160;2023-07-02T12:56:48;19.98;;;13.35;;
140;SDS011;65;48.778;9.160;2023-07-02T12:59:34;19.95;;;13.32;;
140;SDS011;65;48.778;9.160;2023-07-02T13:02:20;17.85;;;12.90;;
140;SDS011;65;48.778;9.160;2023-07-02T13:05:07;22.15;;;13.48;;
140;SDS011;65;48.778;9.160;2023-07-02T13:07:53;23.42;;;13.10;;
140;SDS011;65;48.778;9.160;2023-07-02T13:10:39;20.00;;;12.98;;
140;SDS011;65;48.778;9.160;2023-07-02T13:13:25;19.20;;;12.60;;
140;SDS011;65;48.778;9.160;2023-07-02T13:16:11;18.75;;;12.95;;
140;SDS011;65;48.778;9.160;2023-07-02T13:18:57;23.63;;;13.77;;
140;SDS011;65;48.778;9.160;2023-07-02T13:21:43;19.85;;;12.85;;
140;SDS011;65;48.778;9.160;2023-07-02T13:24:33;20.15;;;13.43;;
140;SDS011;65;48.778;9.160;2023-07-02T13:27:23;21.63;;;12.57;;
140;SDS011;65;48.778;9.160;2023-07-02T13:30:08;20.52;;;13.07;;
140;SDS011;65;48.778;9.160;2023-07-02T13:32:54;20.02;;;13.45;;
140;SDS011;65;48.778;9.160;2023-07-02T13:38:57;20.33;;;13.52;;
140;SDS011;65;48.778;9.160;2023-07-02T13:41:43;19.20;;;12.65;;
140;SDS011;65;48.778;9.160;2023-07-02T13:44:29;21.05;;;14.60;;
140;SDS011;65;48.778;9.160;2023-07-02T13:47:16;19.48;;;12.75;;
140;SDS011;65;48.778;9.160;2023-07-02T13:50:02;20.77;;;12.90;;
140;SDS011;65;48.778;9.160;2023-07-02T13:52:48;19.23;;;13.13;;
140;SDS011;65;48.778;9.160;2023-07-02T13:55:35;19.38;;;12.27;;
140;SDS011;65;48.778;9.160;2023-07-02T13:58:24;22.52;;;13.35;;
140;SDS011;65;48.778;9.160;2023-07-02T14:01:10;18.17;;;11.98;;
140;SDS011;65;48.778;9.160;2023-07-02T14:03:56;20.88;;;13.25;;
140;SDS011;65;48.778;9.160;2023-07-02T14:06:42;19.25;;;12.57;;
140;SDS011;65;48.778;9.160;2023-07-02T14:09:28;21.98;;;13.18;;
140;SDS011;65;48.778;9.160;2023-07-02T14:12:14;23.60;;;13.50;;
140;SDS011;65;48.778;9.160;2023-07-02T14:15:00;21.58;;;12.80;;
140;SDS011;65;48.778;9.160;2023-07-02T14:17:46;21.45;;;13.23;;
140;SDS011;65;48.778;9.160;2023-07-02T14:20:32;19.67;;;12.88;;
140;SDS011;65;48.778;9.160;2023-07-02T14:23:18;20.73;;;12.75;;
140;SDS011;65;48.778;9.160;2023-07-02T14:26:04;19.20;;;12.68;;
140;SDS011;65;48.778;9.160;2023-07-02T14:28:50;18.30;;;12.55;;
140;SDS011;65;48.778;9.160;2023-07-02T14:31:38;19.45;;;13.50;;
140;SDS011;65;48.778;9.160;2023-07-02T14:34:23;20.10;;;12.95;;
140;SDS011;65;48.778;9.160;2023-07-02T14:37:09;18.75;;;13.40;;
140;SDS011;65;48.778;9.160;2023-07-02T14:39:55;19.02;;;13.25;;
140;SDS011;65;48.778;9.160;2023-07-02T14:42:41;20.20;;;13.55;;
140;SDS011;65;48.778;9.160;2023-07-02T14:45:27;20.98;;;13.15;;
140;SDS011;65;48.778;9.160;2023-07-02T14:48:13;21.13;;;12.25;;
140;SDS011;65;48.778;9.160;2023-07-02T14:51:00;21.33;;;13.70;;
140;SDS011;65;48.778;9.160;2023-07-02T14:53:49;18.17;;;12.40;;
140;SDS011;65;48.778;9.160;2023-07-02T14:56:36;19.75;;;13.38;;
140;SDS011;65;48.778;9.160;2023-07-02T14:59:23;21.40;;;13.23;;
140;SDS011;65;48.778;9.160;2023-07-02T15:02:08;22.85;;;13.45;;
140;SDS011;65;48.778;9.160;2023-07-02T15:04:54;24.55;;;16.23;;
140;SDS011;65;48.778;9.160;2023-07-02T15:07:40;20.63;;;13.95;;
140;SDS011;65;48.778;9.160;2023-07-02T15:10:26;20.25;;;12.95;;
140;SDS011;65;48.778;9.160;2023-07-02T15:13:12;20.13;;;12.98;;
140;SDS011;65;48.778;9.160;2023-07-02T15:15:58;21.02;;;13.57;;
140;SDS011;65;48.778;9.160;2023-07-02T15:18:44;19.48;;;13.18;;
140;SDS011;65;48.778;9.160;2023-07-02T15:21:29;22.42;;;13.60;;
140;SDS011;65;48.778;9.160;2023-07-02T15:24:16;22.83;;;13.55;;
140;SDS011;65;48.778;9.160;2023-07-02T15:27:01;19.60;;;13.63;;
140;SDS011;65;48.778;9.160;2023-07-02T15:29:47;19.48;;;12.65;;
140;SDS011;65;48.778;9.160;2023-07-02T15:32:33;21.40;;;14.20;;
140;SDS011;65;48.778;9.160;2023-07-02T15:35:19;21.73;;;13.60;;
140;SDS011;65;48.778;9.160;2023-07-02T15:38:05;23.70;;;14.38;;
140;SDS011;65;48.778;9.160;2023-07-02T15:40:52;21.35;;;13.90;;
140;SDS011;65;48.778;9.160;2023-07-02T15:44:01;21.45;;;14.18;;
140;SDS011;65;48.778;9.160;2023-07-02T15:46:49;21.13;;;13.10;;
140;SDS011;65;48.778;9.160;2023-07-02T15:49:35;18.52;;;13.00;;
140;SDS011;65;48.778;9.160;2023-07-02T15:52:21;24.02;;;14.52;;
140;SDS011;65;48.778;9.160;2023-07-02T15:55:07;20.52;;;13.57;;
140;SDS011;65;48.778;9.160;2023-07-02T15:57:52;22.48;;;14.00;;
140;SDS011;65;48.778;9.160;2023-07-02T16:00:40;20.40;;;13.38;;
140;SDS011;65;48.778;9.160;2023-07-02T16:03:26;19.55;;;12.93;;
140;SDS011;65;48.778;9.160;2023-07-02T16:06:12;18.98;;;12.73;;
140;SDS011;65;48.778;9.160;2023-07-02T16:09:02;19.30;;;13.00;;
140;SDS011;65;48.778;9.160;2023-07-02T16:11:50;19.50;;;13.00;;
140;SDS011;65;48.778;9.160;2023-07-02T16:14:36;20.88;;;13.88;;
140;SDS011;65;48.778;9.160;2023-07-02T16:17:23;19.50;;;12.93;;
140;SDS011;65;48.778;9.160;2023-07-02T16:20:09;18.65;;;12.95;;
140;SDS011;65;48.778;9.160;2023-07-02T16:22:55;23.10;;;13.60;;
140;SDS011;65;48.778;9.160;2023-07-02T16:25:41;19.60;;;13.30;;
140;SDS011;65;48.778;9.160;2023-07-02T16:28:39;20.92;;;13.60;;
140;SDS011;65;48.778;9.160;2023-07-02T16:31:25;23.65;;;13.52;;
140;SDS011;65;48.778;9.160;2023-07-02T16:34:11;21.10;;;13.48;;
140;SDS011;65;48.778;9.160;2023-07-02T16:36:58;18.50;;;12.45;;
140;SDS011;65;48.778;9.160;2023-07-02T16:39:44;19.73;;;13.35;;
140;SDS011;65;48.778;9.160;2023-07-02T16:42:33;19.83;;;12.75;;
140;SDS011;65;48.778;9.160;2023-07-02T16:45:19;20.67;;;13.05;;
140;SDS011;65;48.778;9.160;2023-07-02T16:48:05;19.83;;;12.95;;
140;SDS011;65;48.778;9.160;2023-07-02T16:50:57;19.15;;;12.45;;
140;SDS011;65;48.778;9.160;2023-07-02T16:53:45;20.92;;;13.43;;
140;SDS011;65;48.778;9.160;2023-07-02T16:56:30;18.40;;;11.80;;
140;SDS011;65;48.778;9.160;2023-07-02T16:59:17;22.25;;;13.20;;
140;SDS011;65;48.778;9.160;2023-07-02T17:02:05;21.55;;;12.98;;
140;SDS011;65;48.778;9.160;2023-07-02T17:04:53;19.52;;;12.48;;
140;SDS011;65;48.778;9.160;2023-07-02T17:07:39;18.92;;;12.68;;
140;SDS011;65;48.778;9.160;2023-07-02T17:10:25;19.63;;;12.52;;
140;SDS011;65;48.778;9.160;2023-07-02T17:13:11;21.67;;;12.85;;
140;SDS011;65;48.778;9.160;2023-07-02T17:15:57;18.98;;;12.57;;
140;SDS011;65;48.778;9.160;2023-07-02T17:18:43;20.00;;;12.55;;
140;SDS011;65;48.778;9.160;2023-07-02T17:21:28;22.60;;;12.80;;
140;SDS011;65;48.778;9.160;2023-07-02T17:24:14;21.20;;;13.00;;
140;SDS011;65;48.778;9.160;2023-07-02T17:27:01;19.98;;;13.20;;
140;SDS011;65;48.778;9.160;2023-07-02T17:29:52;19.85;;;12.77;;
140;SDS011;65;48.778;9.160;2023-07-02T17:32:41;22.58;;;13.80;;
140;SDS011;65;48.778;9.160;2023-07-02T17:35:27;23.88;;;13.93;;
140;SDS011;65;48.778;9.160;2023-07-02T17:38:13;23.70;;;12.90;;
140;SDS011;65;48.778;9.160;2023-07-02T17:41:01;21.88;;;12.88;;
140;SDS011;65;48.778;9.160;2023-07-02T17:43:51;20.30;;;13.13;;
140;SDS011;65;48.778;9.160;2023-07-02T17:46:38;19.65;;;12.95;;
140;SDS011;65;48.778;9.160;2023-07-02T17:49:25;18.25;;;12.63;;
140;SDS011;65;48.778;9.160;2023-07-02T17:52:14;21.27;;;12.80;;
140;SDS011;65;48.778;9.160;2023-07-02T17:55:02;22.05;;;12.57;;